New Richmond, WI

11:49 AM CDT del 24 Ottobre 2014 (GMT -0500)
Saint Paul Downtown-Holman | Change Station
CLOSE
Current Station
Aeroporto
Location: St. Paul,
Altitudine: 702 ft
Stazioni meteo nelle vicinanze

Alt. 702 ft 44.93 °N, 93.06 °W | Updated 56 minutes ago

Parzialmente nuvoloso
Parzialmente nuvoloso
56 °F
Sembra 56 °F
N
12
Vento Variabile Vento da SE

Oggi
Massima -- | Minima -- °F
--% Possibilità di precip.
Ieri
Massima -- | Minima -- °F
Precip. -- in
7:37 AM 6:09 PM
Luna nuova, 1% visible
Pressione 29.89 in
Visibilità 10.0 miglia
Nuvole Sereno
Punto di rugiada 50 °F
Umidità 80%
Piovosità 0.00 in
Spessore del manto nevoso Non disponibile.
Raggi UV 2 fuori da 12
Polline .90 fuori da 12
Ozono Buono
PM2.5 Buono
Flu Activity Sporadic
METAR KSTP 241553Z 14010KT 10SM CLR 13/10 A2989 RMK AO2 SLP120 T01330100

More Conditions Fewer Conditions

Pressione 29.89 in
Visibilità 10.0 miglia
Nuvole Sereno
Punto di rugiada 50 °F
Umidità 80%
Piovosità 0.00 in
Spessore del manto nevoso Non disponibile.
Raggi UV 2 fuori da 12
Polline .90 fuori da 12
Ozono Buono
PM2.5 Buono
Flu Activity Sporadic
METAR KSTP 241553Z 14010KT 10SM CLR 13/10 A2989 RMK AO2 SLP120 T01330100

More Conditions Fewer Conditions

10-Day Weather Forecast

Almanac

Astronomia

Oct. 24, 2014 Alba Tramonto
Ora attuale 07:37 CDT 18:09 CDT
Crepuscolo civile 07:07 CDT 18:40 CDT
Crepuscolo nautico 06:33 CDT 19:14 CDT
Crepuscolo astronomico 05:59 CDT 19:48 CDT
Luna 08:18 CDT 18:48 CDT
Estensione della luce visibile 11h 32m
Lunghezza del giorno
10h 31m
Tomorrow will be 2m 56s shorter.
Luna nuova, 1% of the Moon is Illuminated
Oggi
Luna nuova
Ott 30
Primo quarto
Nov 6
Luna piena
Nov 14
Ultimo quarto
Nov 22
Nuovo

Gli estremi di oggi

State Highs State Lows

Community

WunderPhotos

Upload Photos

1,764,609 foto caricate!

WunderBlogs® & News

By Dr. Jeff Masters
Director of Meteorology, Weather Underground
By Kari Strenfel
Meteorologist, Weather Underground
By Christopher C. Burt
Weather Historian, Weather Underground
October 24, 2014
October 24, 2014
October 24, 2014

Nearby

Qualità dell'aria

  Qualità dell'aria Indice AQ Inquinante
Ieri Buono
PM2.5
Ieri Buono
OZONE
Attuale Buono
PM2.5
Attuale Buono
OZONE
Venerdì Buono
PM2.5
Sabato Buono
PM2.5
Domenica Moderato
PM2.5
Lunedì Moderato
PM2.5
Martedì Buono
PM2.5

Profondità neve

Stazione Profondità Altitudine
Non sono state evidenziate nuove nevicate

Attività sismica

Città  Distanza Mag. Data & Ora
Non sono state riportate attività sismiche nelle vicinanze.
Minimo Magnitudo Mostrato è 2.5.

Temperature delle acque costiere

Località Temperatura
Nessun dato dalle stazioni

Stazioni meteo nelle vicinanze